createdAt,value
2023-05-11T00:02:17.713Z,95532.06
2023-05-11T00:07:19.254Z,95524.59
2023-05-11T00:12:20.925Z,95528.13
2023-05-11T00:17:22.577Z,95519.50
2023-05-11T00:22:24.291Z,95525.00
2023-05-11T00:27:26.004Z,95526.63
2023-05-11T00:32:27.627Z,95516.06
2023-05-11T00:37:29.515Z,95521.97
2023-05-11T00:42:31.294Z,95510.63
2023-05-11T00:47:33.223Z,95511.06
2023-05-11T00:52:35.010Z,95514.28
2023-05-11T00:57:38.235Z,95508.81
2023-05-11T01:02:40.679Z,95499.53
2023-05-11T01:07:53.610Z,95503.91
2023-05-11T01:13:01.587Z,95507.50
2023-05-11T01:18:25.234Z,95508.69
2023-05-11T01:24:00.127Z,95506.38
2023-05-11T01:29:22.270Z,95495.44
2023-05-11T01:34:30.732Z,95490.78
2023-05-11T01:39:38.372Z,95488.88
2023-05-11T01:44:44.327Z,95493.94
2023-05-11T01:49:46.050Z,95489.66
2023-05-11T01:54:51.400Z,95490.84
2023-05-11T01:59:55.838Z,95493.59
2023-05-11T02:04:59.590Z,95494.41
2023-05-11T02:10:02.704Z,95491.38
2023-05-11T02:15:09.904Z,95494.13
2023-05-11T02:20:12.252Z,95487.47
2023-05-11T02:25:15.438Z,95497.59
2023-05-11T02:30:17.644Z,95487.03
2023-05-11T02:35:37.427Z,95483.22
2023-05-11T02:40:45.811Z,95495.81
2023-05-11T02:45:50.416Z,95487.59
2023-05-11T02:50:55.335Z,95484.41
2023-05-11T02:56:00.628Z,95478.56
2023-05-11T03:01:06.400Z,95473.50
2023-05-11T03:06:08.178Z,95478.22
2023-05-11T03:11:11.075Z,95475.81
2023-05-11T03:16:14.537Z,95471.88
2023-05-11T03:21:21.225Z,95471.88
2023-05-11T03:26:24.033Z,95471.94
2023-05-11T03:31:25.891Z,95472.41
2023-05-11T03:36:28.812Z,95467.41
2023-05-11T03:41:32.102Z,95471.44
2023-05-11T03:46:37.963Z,95469.16
2023-05-11T03:51:41.874Z,95463.78
2023-05-11T03:56:44.052Z,95464.03
2023-05-11T04:01:46.693Z,95458.28
2023-05-11T04:06:48.829Z,95462.22
2023-05-11T04:11:53.758Z,95459.06
2023-05-11T04:16:56.241Z,95454.00
2023-05-11T04:21:57.738Z,95457.13
2023-05-11T04:26:59.250Z,95461.03
2023-05-11T04:32:01.377Z,95461.81
2023-05-11T04:37:07.245Z,95454.72
2023-05-11T04:42:09.822Z,95453.88
2023-05-11T04:47:12.028Z,95460.91
2023-05-11T04:52:13.680Z,95457.34
2023-05-11T04:57:17.809Z,95461.56
2023-05-11T05:02:21.406Z,95454.47
2023-05-11T05:07:23.028Z,95455.25
2023-05-11T05:12:24.556Z,95465.91
2023-05-11T05:17:26.211Z,95464.75
2023-05-11T05:22:27.911Z,95464.31
2023-05-11T05:27:30.561Z,95461.53
2023-05-11T05:32:33.812Z,95472.06
2023-05-11T05:37:37.400Z,95468.56
2023-05-11T05:42:39.416Z,95471.25
2023-05-11T05:47:42.816Z,95474.41
2023-05-11T05:52:44.583Z,95474.81
2023-05-11T05:57:48.789Z,95485.03
2023-05-11T06:02:51.155Z,95472.13
2023-05-11T06:08:09.250Z,95475.72
2023-05-11T06:13:12.373Z,95483.13
2023-05-11T06:18:16.237Z,95485.94
2023-05-11T06:23:19.208Z,95481.25
2023-05-11T06:28:24.328Z,95488.34
2023-05-11T06:33:27.817Z,95486.03
2023-05-11T06:38:31.046Z,95483.34
2023-05-11T06:43:35.517Z,95482.19
2023-05-11T06:48:38.610Z,95476.34
2023-05-11T06:53:41.603Z,95477.91
2023-05-11T06:58:43.714Z,95477.97
2023-05-11T07:03:47.844Z,95474.44
2023-05-11T07:08:50.916Z,95478.38
2023-05-11T07:13:52.495Z,95476.81
2023-05-11T07:18:54.072Z,95481.53
2023-05-11T07:23:55.950Z,95487.13
2023-05-11T07:28:58.511Z,95480.91
2023-05-11T07:34:00.004Z,95477.03
2023-05-11T07:39:01.898Z,95485.28
2023-05-11T07:44:03.428Z,95488.84
2023-05-11T07:49:15.689Z,95489.59
2023-05-11T07:54:22.514Z,95488.84
2023-05-11T07:59:24.084Z,95480.34
2023-05-11T08:04:27.817Z,95483.25
2023-05-11T08:09:29.625Z,95478.94
2023-05-11T08:14:32.224Z,95490.72
2023-05-11T08:19:33.798Z,95482.50
2023-05-11T08:24:35.362Z,95496.22
2023-05-11T08:29:38.563Z,95490.63
2023-05-11T08:34:40.318Z,95487.34
2023-05-11T08:44:48.082Z,95486.78
2023-05-11T08:49:51.126Z,95490.59
2023-05-11T08:54:53.306Z,95488.13
2023-05-11T08:59:54.906Z,95491.09
2023-05-11T09:04:58.577Z,95482.81
2023-05-11T09:10:00.287Z,95484.06
2023-05-11T09:15:02.266Z,95484.78
2023-05-11T09:20:06.438Z,95484.31
2023-05-11T09:25:11.502Z,95490.50
2023-05-11T09:30:23.150Z,95493.03
2023-05-11T09:35:26.431Z,95486.97
2023-05-11T09:40:33.935Z,95482.34
2023-05-11T09:45:38.269Z,95481.31
2023-05-11T09:50:39.893Z,95478.69
2023-05-11T09:55:55.923Z,95481.03
2023-05-11T10:00:57.685Z,95480.63
2023-05-11T10:06:00.780Z,95484.34
2023-05-11T10:11:07.525Z,95485.72
2023-05-11T10:16:10.067Z,95480.03
2023-05-11T10:21:12.609Z,95473.16
2023-05-11T10:26:15.174Z,95472.31
2023-05-11T10:31:23.734Z,95477.03
2023-05-11T10:36:26.237Z,95474.78
2023-05-11T10:41:39.513Z,95468.25
2023-05-11T10:47:00.322Z,95476.69
2023-05-11T10:52:18.172Z,95472.75
2023-05-11T10:57:22.879Z,95468.69
2023-05-11T11:02:31.334Z,95471.34
2023-05-11T11:07:52.752Z,95470.81
2023-05-11T11:13:05.430Z,95471.72
2023-05-11T11:18:20.783Z,95473.13
2023-05-11T11:23:42.428Z,95479.69
2023-05-11T11:29:02.218Z,95482.38
2023-05-11T11:34:30.460Z,95469.75
2023-05-11T11:39:41.127Z,95479.88
2023-05-11T11:44:44.790Z,95477.84
2023-05-11T11:49:52.160Z,95479.25
2023-05-11T11:54:55.835Z,95481.06
2023-05-11T11:59:58.828Z,95483.69
2023-05-11T12:05:14.085Z,95490.97
2023-05-11T12:10:20.022Z,95488.59
2023-05-11T12:15:26.309Z,95490.06
2023-05-11T12:20:28.379Z,95502.53
2023-05-11T12:25:29.958Z,95500.13
2023-05-11T12:30:33.831Z,95497.72
2023-05-11T12:35:35.464Z,95496.53
2023-05-11T12:40:38.635Z,95491.09
2023-05-11T12:45:40.220Z,95491.19
2023-05-11T12:50:47.450Z,95485.69
2023-05-11T12:55:59.366Z,95489.09
2023-05-11T13:01:01.605Z,95488.28
2023-05-11T13:06:04.698Z,95494.44
2023-05-11T13:11:24.588Z,95495.56
2023-05-11T13:16:31.992Z,95498.69
2023-05-11T13:21:34.010Z,95484.56
2023-05-11T13:26:36.751Z,95488.88
2023-05-11T13:31:43.665Z,95490.53
2023-05-11T13:36:46.957Z,95490.53
2023-05-11T13:41:48.555Z,95490.16
2023-05-11T13:46:50.364Z,95494.44
2023-05-11T13:51:52.505Z,95492.91
2023-05-11T13:56:54.179Z,95483.91
2023-05-11T14:01:55.909Z,95488.59
2023-05-11T14:06:58.657Z,95482.31
2023-05-11T14:12:01.052Z,95478.03
2023-05-11T14:17:02.667Z,95481.56
2023-05-11T14:22:05.140Z,95478.91
2023-05-11T14:27:06.698Z,95483.59
2023-05-11T14:32:08.230Z,95480.19
2023-05-11T14:37:09.805Z,95484.13
2023-05-11T14:42:11.565Z,95481.81
2023-05-11T14:47:13.112Z,95486.44
2023-05-11T14:52:15.437Z,95486.44
2023-05-11T14:57:17.584Z,95484.47
2023-05-11T15:02:19.081Z,95487.66
2023-05-11T15:07:21.233Z,95487.72
2023-05-11T15:12:23.765Z,95491.25
2023-05-11T15:17:26.849Z,95498.72
2023-05-11T15:22:28.509Z,95494.44
2023-05-11T15:27:31.054Z,95499.94
2023-05-11T15:32:32.622Z,95510.19
2023-05-11T15:37:34.208Z,95514.13
2023-05-11T15:42:35.691Z,95513.69
2023-05-11T15:47:37.962Z,95513.69
2023-05-11T15:52:42.877Z,95517.63
2023-05-11T15:57:44.429Z,95519.63
2023-05-11T16:02:46.188Z,95518.44
2023-05-11T16:07:47.921Z,95521.19
2023-05-11T16:12:49.418Z,95517.31
2023-05-11T16:17:51.425Z,95525.97
2023-05-11T16:22:53.204Z,95528.00
2023-05-11T16:27:54.727Z,95537.56
2023-05-11T16:32:56.244Z,95534.88
2023-05-11T16:37:59.477Z,95528.34
2023-05-11T16:43:01.373Z,95530.44
2023-05-11T16:48:03.110Z,95525.84
2023-05-11T16:53:05.216Z,95524.72
2023-05-11T16:58:06.727Z,95532.25
2023-05-11T17:03:08.400Z,95533.56
2023-05-11T17:08:09.956Z,95534.38
2023-05-11T17:13:11.836Z,95532.47
2023-05-11T17:18:13.374Z,95538.41
2023-05-11T17:23:15.310Z,95535.31
2023-05-11T17:28:16.921Z,95536.50
2023-05-11T17:33:18.814Z,95534.94
2023-05-11T17:38:20.671Z,95539.31
2023-05-11T17:43:22.263Z,95534.28
2023-05-11T17:48:24.179Z,95544.50
2023-05-11T17:53:26.017Z,95539.81
2023-05-11T17:58:27.714Z,95543.41
2023-05-11T18:03:29.393Z,95541.13
2023-05-11T18:08:31.214Z,95550.97
2023-05-11T18:13:32.870Z,95558.84
2023-05-11T18:18:36.642Z,95556.94
2023-05-11T18:23:38.371Z,95562.84
2023-05-11T18:28:39.906Z,95560.50
2023-05-11T18:33:41.500Z,95561.72
2023-05-11T18:38:43.845Z,95559.81
2023-05-11T18:43:45.604Z,95564.19
2023-05-11T18:48:50.439Z,95566.97
2023-05-11T18:53:52.262Z,95565.84
2023-05-11T18:58:53.857Z,95567.44
2023-05-11T19:03:56.148Z,95571.81
2023-05-11T19:08:57.740Z,95578.63
2023-05-11T19:13:59.447Z,95581.44
2023-05-11T19:19:03.421Z,95585.00
2023-05-11T19:24:05.245Z,95589.34
2023-05-11T19:29:09.135Z,95595.28
2023-05-11T19:34:10.967Z,95598.84
2023-05-11T19:39:12.862Z,95601.25
2023-05-11T19:44:14.383Z,95605.59
2023-05-11T19:49:16.683Z,95595.78
2023-05-11T19:54:18.198Z,95593.84
2023-05-11T19:59:20.164Z,95607.19
2023-05-11T20:04:21.723Z,95602.94
2023-05-11T20:09:24.920Z,95604.16
2023-05-11T20:14:27.228Z,95604.97
2023-05-11T20:19:28.846Z,95603.03
2023-05-11T20:24:30.861Z,95600.75
2023-05-11T20:29:32.720Z,95597.63
2023-05-11T20:34:34.540Z,95591.00
2023-05-11T20:39:36.362Z,95594.50
2023-05-11T20:44:38.020Z,95595.34
2023-05-11T20:49:39.745Z,95596.56
2023-05-11T20:54:41.473Z,95592.31
2023-05-11T21:04:47.608Z,95594.00
2023-05-11T21:09:49.152Z,95597.13
2023-05-11T21:14:50.770Z,95592.78
2023-05-11T21:19:52.306Z,95595.59
2023-05-11T21:24:53.826Z,95593.63
2023-05-11T21:29:56.339Z,95590.44
2023-05-11T21:34:58.045Z,95590.03
2023-05-11T21:40:00.358Z,95594.00
2023-05-11T21:45:03.063Z,95588.13
2023-05-11T21:50:05.824Z,95588.53
2023-05-11T21:55:07.984Z,95597.97
2023-05-11T22:00:11.139Z,95597.19
2023-05-11T22:05:13.797Z,95595.63
2023-05-11T22:10:15.489Z,95596.06
2023-05-11T22:15:17.130Z,95593.31
2023-05-11T22:20:18.951Z,95597.22
2023-05-11T22:25:20.620Z,95598.44
2023-05-11T22:30:22.581Z,95596.09
2023-05-11T22:35:24.421Z,95596.53
2023-05-11T22:40:25.998Z,95601.19
2023-05-11T22:45:27.491Z,95605.53
2023-05-11T22:50:29.608Z,95601.19
2023-05-11T22:55:31.192Z,95601.19
2023-05-11T23:00:33.086Z,95598.06
2023-05-11T23:05:34.718Z,95598.84
2023-05-11T23:10:36.283Z,95595.72
2023-05-11T23:15:37.798Z,95592.59
2023-05-11T23:20:39.385Z,95589.84
2023-05-11T23:25:41.144Z,95591.41
2023-05-11T23:30:45.799Z,95586.69
2023-05-11T23:35:47.894Z,95580.06
2023-05-11T23:40:49.524Z,95586.31
2023-05-11T23:45:57.402Z,95578.84
2023-05-11T23:50:59.052Z,95572.59
2023-05-11T23:56:00.548Z,95569.84
